Tiempo atmosférico en la estación meteorológica de L?Estartit, Girona (1 m.)



Fecha
DESCASC
Temp. máxima en grados centígrados (hora)
DESCASC
Temp. mínima en grados centígrados (hora)
DESCASC
Temp. media en grados centígrados
DESCASC
Racha de viento máxima en m/sg (hora)
DESCASC
Velocidad máxima media en intervalos de 10 minutos(hora)
DESCASC
Precipitaciones diarias en mm
DESCASC
Precipitaciones de 00:00 a 06:00 en mm
DESCASC
Precipitaciones de 06:00 a 12:00 en mm
DESCASC
Precipitaciones de 12:00 a 18:00 en mm
DESCASC
Precipitaciones de 18:00 a 24:00 en mm
DESCASC

Gráficas

Temp. máximas Temp. mínimas Temp. medias Precipitaciones Rachas de viento máximas Velocidades máximas media en intervalos de 10 minutos

Datos horarios

Fecha y hora oficial Temperatura (ºC) Velocidad del viento (km/h) Dirección del viento Racha (km/h) Dirección de racha Precipitación (mm) Presión (hPa) Tendencia (hPa) Humedad (%)
2020-07-02 23:00:00 22.5 17 Noroeste 36 Noroeste 0 -- -- 62
2020-07-02 22:00:00 22.6 15 Noroeste 39 Noroeste 0 -- -- 65
2020-07-02 21:00:00 21.8 10 Noroeste 33 Noroeste 0 -- -- 72
2020-07-02 20:00:00 22.5 18 Noroeste 36 Noroeste 0.2 -- -- 69
2020-07-02 19:00:00 23.6 15 Noroeste 35 Norte 0 -- -- 68
2020-07-02 18:00:00 25.6 13 Noroeste 35 Noroeste 0 -- -- 62
2020-07-02 17:00:00 26.9 9 Nordeste 18 Nordeste 0 -- -- 66
2020-07-02 16:00:00 25.4 6 Sur 20 Norte 0.2 -- -- 79
2020-07-02 15:00:00 25.3 7 Norte 28 Este 0 -- -- 73
2020-07-02 14:00:00 26.3 13 Nordeste 34 Norte 0 -- -- 63
2020-07-02 13:00:00 27.6 14 Nordeste 28 Norte 0 -- -- 60
2020-07-02 12:00:00 26.8 12 Sudeste 19 Sudeste 0 -- -- 69
2020-07-02 11:00:00 26.2 10 Sudeste 15 Este 0 -- -- 71
2020-07-02 10:00:00 26.1 10 Sudeste 14 Sudeste 0 -- -- 74
2020-07-02 09:00:00 25.3 5 Sudeste 15 Noroeste 0 -- -- 75
2020-07-02 08:00:00 22.9 0 Calma 6 Sudoeste 0 -- -- 85
2020-07-02 07:00:00 22.2 2 Noroeste 13 Oeste 0 -- -- 83
2020-07-02 06:00:00 22.5 5 Noroeste 12 Norte 0 -- -- 81
2020-07-02 05:00:00 22.7 4 Noroeste 11 Norte 0 -- -- 82
2020-07-02 04:00:00 22.3 4 Noroeste 12 Norte 0 -- -- 89
2020-07-02 03:00:00 23 6 Sudoeste 12 Oeste 0 -- -- 91
2020-07-02 02:00:00 22.8 3 Noroeste 9 Oeste 0 -- -- 90
2020-07-02 01:00:00 23.2 6 Oeste 9 Oeste 0 -- -- 89
2020-07-02 00:00:00 23.5 2 Nordeste 10 Nordeste 0 -- -- 89
2020-07-01 23:00:00 23.8 6 Nordeste 17 Nordeste 0 -- -- 89
2020-07-01 22:00:00 23.8 6 Nordeste 16 Este 0 -- -- 87
2020-07-01 21:00:00 24 9 Nordeste 23 Este 0 -- -- 87
2020-07-01 20:00:00 25.2 12 Este 26 Nordeste 0 -- -- 79
2020-07-01 19:00:00 25.7 12 Nordeste 21 Nordeste 0 -- -- 79
2020-07-01 18:00:00 26 5 Sudeste 18 Sur 0 -- -- 80
2020-07-01 17:00:00 25.7 9 Sudeste 25 Sudeste 0 -- -- 82
2020-07-01 16:00:00 25.5 11 Sudeste 26 Sudeste 0 -- -- 84
2020-07-01 15:00:00 25.4 17 Sudeste 27 Sudeste 0 -- -- 83
2020-07-01 14:00:00 24.9 20 Sudeste 28 Sudeste 0 -- -- 86
2020-07-01 13:00:00 25.6 12 Sudeste 20 Este 0 -- -- 82
2020-07-01 12:00:00 25 12 Este 18 Este 0 -- -- 81
2020-07-01 11:00:00 25.1 12 Sudeste 17 Sudeste 0 -- -- 81
2020-07-01 10:00:00 26.4 3 Sudeste 10 Sudeste 0 -- -- 74
2020-07-01 09:00:00 25.2 4 Sudoeste 13 Oeste 0 -- -- 80
2020-07-01 08:00:00 22.5 6 Oeste 13 Sudoeste 0 -- -- 91
2020-07-01 07:00:00 21.7 4 Oeste 12 Sur 0 -- -- 90
2020-07-01 06:00:00 22.4 3 Noroeste 15 Norte 0 -- -- 89
2020-07-01 05:00:00 22.4 5 Noroeste 14 Noroeste 0 -- -- 88
2020-07-01 04:00:00 22.8 5 Noroeste 15 Nordeste 0 -- -- 88
2020-07-01 03:00:00 23 7 Oeste 17 Oeste 0 -- -- 87
2020-07-01 02:00:00 23.2 6 Oeste 15 Oeste 0 -- -- 88
2020-07-01 01:00:00 23.5 4 Oeste 12 Oeste 0 -- -- 88
2020-07-01 00:00:00 23.6 4 Oeste 11 Sudoeste 0 -- -- 87
2020-06-30 23:00:00 23.8 6 Oeste 14 Sudoeste 0 -- -- 86
2020-06-30 22:00:00 24.1 8 Sudoeste 20 Sudoeste 0 -- -- 83
2020-06-30 21:00:00 24.7 13 Sudoeste 27 Sudoeste 0 -- -- 80
2020-06-30 20:00:00 25.4 13 Sur 23 Sudoeste 0 -- -- 79
2020-06-30 19:00:00 26 14 Sur 25 Sur 0 -- -- 76
2020-06-30 18:00:00 25.7 16 Sur 26 Sudeste 0 -- -- 77
2020-06-30 17:00:00 24.7 14 Sur 25 Sudeste 0 -- -- 82
2020-06-30 16:00:00 23.9 14 Sudeste 27 Sudeste 0 -- -- 82
2020-06-30 15:00:00 24.3 18 Sur 27 Sur 0 -- -- 79
2020-06-30 14:00:00 23.7 11 Sudeste 17 Sudeste 0 -- -- 79
2020-06-30 13:00:00 23 6 Sudeste 9 Sudeste 0 -- -- 78
2020-06-30 12:00:00 22.6 6 Sudeste 13 Este 0 -- -- 81
2020-06-30 11:00:00 21.4 7 Este 12 Este 0 -- -- 87
2020-06-30 10:00:00 21.7 7 Sudeste 10 Sudeste 0 -- -- 87
2020-06-30 09:00:00 21.7 5 Sudeste 10 Este 0 -- -- 87
2020-06-30 08:00:00 22.2 0 Calma 6 Sudoeste 0 -- -- 87
2020-06-30 07:00:00 22.4 2 Noroeste 7 Sudoeste 0 -- -- 86
2020-06-30 06:00:00 22 6 Oeste 12 Oeste 0 -- -- 88
2020-06-30 05:00:00 22.4 4 Oeste 9 Oeste 0 -- -- 87
2020-06-30 04:00:00 22.3 5 Sudoeste 10 Sudoeste 0 -- -- 86
2020-06-30 03:00:00 22.6 7 Oeste 10 Sudoeste 0 -- -- 85
2020-06-30 02:00:00 22.9 4 Sudoeste 14 Sudoeste 0 -- -- 84
2020-06-30 01:00:00 23.1 7 Sudoeste 14 Oeste 0 -- -- 83
2020-06-30 00:00:00 23.7 8 Oeste 17 Oeste 0 -- -- 81
2020-06-29 23:00:00 24.1 8 Oeste 15 Oeste 0 -- -- 76
2020-06-29 22:00:00 24.5 6 Oeste 10 Oeste 0 -- -- 74
2020-06-29 21:00:00 24.5 3 Sudoeste 11 Sur 0 -- -- 74
2020-06-29 20:00:00 25.2 5 Sudeste 10 Sudeste 0 -- -- 73
2020-06-29 19:00:00 25.3 6 Este 18 Este 0 -- -- 68
2020-06-29 18:00:00 25.3 10 Este 19 Este 0 -- -- 69
2020-06-29 17:00:00 25.7 11 Este 24 Este 0 -- -- 66
2020-06-29 16:00:00 26.2 14 Este 24 Este 0 -- -- 64
2020-06-29 15:00:00 26.1 15 Este 28 Este 0 -- -- 67
2020-06-29 14:00:00 26 19 Este 29 Este 0 -- -- 65
2020-06-29 13:00:00 26.1 13 Este 22 Este 0 -- -- 68
2020-06-29 12:00:00 26 12 Sudeste 18 Sudeste 0 -- -- 69
2020-06-29 11:00:00 25.7 6 Sudeste 10 Sudeste 0 -- -- 72
2020-06-29 10:00:00 25.1 4 Sur 13 Sudoeste 0 -- -- 73
2020-06-29 09:00:00 24.3 8 Sudoeste 13 Nordeste 0 -- -- 77
2020-06-29 08:00:00 24 9 Nordeste 15 Nordeste 0 -- -- 76
2020-06-29 07:00:00 23 6 Nordeste 13 Nordeste 0 -- -- 79
2020-06-29 06:00:00 23 3 Noroeste 11 Oeste 0 -- -- 75
2020-06-29 05:00:00 23.1 6 Oeste 15 Oeste 0 -- -- 73
2020-06-29 04:00:00 23.1 7 Oeste 12 Oeste 0 -- -- 72
2020-06-29 03:00:00 22.7 6 Noroeste 9 Sur 0 -- -- 76
2020-06-29 02:00:00 23 5 Noroeste 6 Noroeste 0 -- -- 73
2020-06-29 01:00:00 23.6 2 Noroeste 8 Noroeste 0 -- -- 70
2020-06-29 00:00:00 24.5 3 Noroeste 10 Oeste 0 -- -- 65
2020-06-28 23:00:00 25.2 5 Oeste 12 Oeste 0 -- -- 68
2020-06-28 22:00:00 25.5 7 Oeste 12 Oeste 0 -- -- 66
2020-06-28 21:00:00 25.6 6 Sur 12 Sur 0 -- -- 63
2020-06-28 20:00:00 26.6 9 Sur 21 Sur 0 -- -- 63
2020-06-28 19:00:00 26.5 9 Sudeste 20 Sudeste 0 -- -- 71
2020-06-28 18:00:00 26.6 16 Sudeste 21 Sudeste 0 -- -- 63
2020-06-28 17:00:00 25.9 15 Sudeste 23 Sudeste 0 -- -- 72
2020-06-28 16:00:00 26.7 13 Sudeste 21 Sudeste 0 -- -- 69
2020-06-28 15:00:00 26.4 12 Sudeste 18 Sudeste 0 -- -- 74
2020-06-28 14:00:00 26.7 9 Sudeste 14 Sudeste 0 -- -- 73
2020-06-28 13:00:00 26 9 Sudeste 14 Este 0 -- -- 75
2020-06-28 12:00:00 25.5 8 Sudeste 18 Este 0 -- -- 76
2020-06-28 11:00:00 25.3 10 Sudeste 18 Este 0 -- -- 74
2020-06-28 10:00:00 24.4 7 Sudeste 9 Sudeste 0 -- -- 79
2020-06-28 09:00:00 23.5 5 Sudeste 7 Sudeste 0 -- -- 84
2020-06-28 08:00:00 21.7 0 Calma 7 Sur 0 -- -- 91
2020-06-28 07:00:00 20.6 3 Oeste 9 Oeste 0 -- -- 91
2020-06-28 06:00:00 20.8 0 Calma 17 Noroeste 0 -- -- 90
2020-06-28 05:00:00 21.5 8 Noroeste 15 Norte 0 -- -- 90
2020-06-28 04:00:00 21.6 4 Oeste 8 Noroeste 0 -- -- 87
2020-06-28 03:00:00 22.3 2 Norte 4 Noroeste 0 -- -- 86
2020-06-28 02:00:00 22.6 2 Noroeste 9 Oeste 0 -- -- 85
2020-06-28 01:00:00 23.2 5 Oeste 9 Oeste 0 -- -- 84
2020-06-28 00:00:00 23.3 4 Sudoeste 7 Oeste 0 -- -- 84
2020-06-27 23:00:00 22.9 5 Sudoeste 7 Sudoeste 0 -- -- 87
2020-06-27 22:00:00 23 5 Sudoeste 10 Sur 0 -- -- 88
2020-06-27 21:00:00 23.5 9 Sudeste 18 Sudeste 0 -- -- 87
2020-06-27 20:00:00 24.2 14 Sudeste 21 Sudeste 0 -- -- 83
2020-06-27 19:00:00 24.4 14 Sudeste 24 Sudeste 0 -- -- 82
2020-06-27 18:00:00 25 15 Sudeste 24 Sudeste 0 -- -- 80
2020-06-27 17:00:00 25.2 14 Sudeste 23 Sudeste 0 -- -- 79
2020-06-27 16:00:00 25.2 16 Sudeste 29 Sudeste 0 -- -- 80
2020-06-27 15:00:00 24.7 21 Sudeste 28 Sudeste 0 -- -- 81
2020-06-27 14:00:00 24.6 20 Sudeste 28 Sudeste 0 -- -- 81
2020-06-27 13:00:00 24.8 15 Sudeste 25 Sudeste 0 -- -- 82
2020-06-27 12:00:00 24.4 9 Este 17 Este 0 -- -- 81
2020-06-27 11:00:00 24.3 11 Sudeste 13 Sudeste 0 -- -- 78
2020-06-27 10:00:00 23.9 8 Sudeste 10 Sudeste 0 -- -- 79
2020-06-27 09:00:00 22 3 Sudoeste 6 Sudoeste 0 -- -- 82
2020-06-27 08:00:00 20.9 3 Sudoeste 9 Sudoeste 0 -- -- 84
2020-06-27 07:00:00 21.9 6 Norte 15 Noroeste 0 -- -- 89
2020-06-27 06:00:00 22.1 0 Calma 6 Sudoeste 0 -- -- 89
2020-06-27 05:00:00 22.9 3 Oeste 6 Este 0 -- -- 89
2020-06-27 04:00:00 22.8 2 Sudoeste 8 Oeste 0 -- -- 88
2020-06-27 03:00:00 23 0 Calma 9 Oeste 0 -- -- 86
2020-06-27 02:00:00 22.9 2 Sur 10 Sudoeste 0 -- -- 82
2020-06-27 01:00:00 23 6 Oeste 10 Sudoeste 0 -- -- 79
2020-06-27 00:00:00 23.2 6 Sudoeste 8 Sudoeste 0 -- -- 75
2020-06-26 23:00:00 23.7 4 Oeste 12 Oeste 0 -- -- 72
2020-06-26 22:00:00 23.8 7 Sudoeste 14 Sur 0 -- -- 71
2020-06-26 21:00:00 23.4 9 Sudeste 19 Sudeste 0 -- -- 80
2020-06-26 20:00:00 24.4 14 Sudeste 25 Sudeste 0 -- -- 79
2020-06-26 19:00:00 24.5 19 Sudeste 32 Sudeste 0 -- -- 85
2020-06-26 18:00:00 25 17 Sudeste 30 Sudeste 0 -- -- 81
2020-06-26 17:00:00 25.3 19 Sudeste 28 Sudeste 0 -- -- 76
2020-06-26 16:00:00 25 21 Sudeste 31 Sudeste 0 -- -- 80
2020-06-26 15:00:00 24.8 22 Sudeste 31 Sudeste 0 -- -- 82
2020-06-26 14:00:00 25.1 22 Sudeste 28 Sudeste 0 -- -- 77
2020-06-26 13:00:00 24.7 15 Sudeste 26 Sudeste 0 -- -- 80
2020-06-26 12:00:00 24.3 15 Sudeste 27 Sudeste 0 -- -- 83
2020-06-26 11:00:00 23.5 6 Sudeste 10 Este 0 -- -- 89
2020-06-26 10:00:00 21.7 2 Sur 6 Sudoeste 0 -- -- 94
2020-06-26 09:00:00 20.8 4 Sur 9 Sudeste 0 -- -- 93
2020-06-26 08:00:00 21.1 0 Calma 7 Oeste 0 -- -- 93
2020-06-26 07:00:00 20.8 4 Sudoeste 12 Sudoeste 0 -- -- 92
2020-06-26 06:00:00 21.3 4 Noroeste 5 Noroeste 0 -- -- 92
2020-06-26 05:00:00 21.8 0 Calma 17 Nordeste 0 -- -- 92
2020-06-26 04:00:00 21.7 12 Nordeste 19 Nordeste 0 -- -- 92
2020-06-26 03:00:00 21.8 4 Norte 6 Noroeste 0 -- -- 85
2020-06-26 02:00:00 22.2 2 Norte 5 Noroeste 0 -- -- 88
2020-06-26 01:00:00 22.7 3 Norte 10 Oeste 0 -- -- 87
2020-06-26 00:00:00 23.4 3 Noroeste 8 Noroeste 0 -- -- 84
2020-06-25 23:00:00 23.6 3 Sudoeste 9 Sudoeste 0 -- -- 83
2020-06-25 22:00:00 23.9 5 Sudoeste 13 Sudoeste 0 -- -- 83
2020-06-25 21:00:00 24.3 10 Sudoeste 23 Sudoeste 0 -- -- 82
2020-06-25 20:00:00 23.5 15 Sudeste 27 Sudeste 0 -- -- 86
2020-06-25 19:00:00 23.5 14 Sudeste 23 Sudeste 0 -- -- 88
2020-06-25 18:00:00 24.5 12 Sudeste 23 Sudeste 0 -- -- 85
2020-06-25 17:00:00 25.1 13 Sudeste 24 Sudeste 0 -- -- 82
2020-06-25 16:00:00 25.2 13 Sudeste 21 Sudeste 0 -- -- 81
2020-06-25 15:00:00 24.4 13 Sudeste 22 Sudeste 0 -- -- 82
2020-06-25 14:00:00 24.1 12 Este 20 Este 0 -- -- 81
2020-06-25 13:00:00 24 11 Este 19 Este 0 -- -- 79
2020-06-25 12:00:00 23.8 10 Este 19 Este 0 -- -- 77
2020-06-25 11:00:00 23.4 10 Este 15 Este 0 -- -- 78
2020-06-25 10:00:00 22.5 9 Este 22 Este 0 -- -- 84
2020-06-25 09:00:00 21.7 13 Nordeste 22 Nordeste 0 -- -- 86
2020-06-25 08:00:00 21.3 0 Calma 6 Noroeste 0 -- -- 88
2020-06-25 07:00:00 19.5 0 Calma 9 Noroeste 0 -- -- 89
2020-06-25 06:00:00 19.9 5 Noroeste 12 Noroeste 0 -- -- 88
2020-06-25 05:00:00 20.3 6 Noroeste 14 Noroeste 0 -- -- 88
2020-06-25 04:00:00 20.7 3 Noroeste 7 Noroeste 0 -- -- 86
2020-06-25 03:00:00 21.6 0 Calma 8 Sudoeste 0 -- -- 86
2020-06-25 02:00:00 21.9 4 Sudoeste 11 Sudoeste 0 -- -- 85
2020-06-25 01:00:00 22.7 7 Sudoeste 13 Oeste 0 -- -- 79
2020-06-25 00:00:00 23 8 Sudoeste 13 Sur 0 -- -- 75
2020-06-24 23:00:00 22.9 8 Sur 13 Sur 0 -- -- 80
2020-06-24 22:00:00 23 5 Sudoeste 20 Sur 0 -- -- 76
2020-06-24 21:00:00 22.8 15 Sudeste 22 Sudeste 0 -- -- 85
2020-06-24 20:00:00 23.7 9 Sur 22 Sudeste 0 -- -- 78
2020-06-24 19:00:00 24 16 Sur 28 Sudeste 0 -- -- 78
2020-06-24 18:00:00 24.2 21 Sudeste 32 Sudeste 0 -- -- 76
2020-06-24 17:00:00 24.3 22 Sudeste 33 Sudeste 0 -- -- 76
2020-06-24 16:00:00 24.1 23 Sudeste 33 Sudeste 0 -- -- 78
2020-06-24 15:00:00 23.8 25 Sudeste 35 Sudeste 0 -- -- 85
2020-06-24 14:00:00 24.2 24 Sudeste 32 Sudeste 0 -- -- 82
2020-06-24 13:00:00 25.8 18 Sudeste 30 Sur 0 -- -- 69
2020-06-24 12:00:00 25.9 19 Sur 28 Sur 0 -- -- 64
2020-06-24 11:00:00 25.2 15 Sur 25 Sur 0 -- -- 67
2020-06-24 10:00:00 24.4 14 Sur 18 Sur 0 -- -- 74
2020-06-24 09:00:00 23.7 9 Sur 14 Sur 0 -- -- 79
2020-06-24 08:00:00 22.4 5 Sudoeste 10 Sudoeste 0 -- -- 86
2020-06-24 07:00:00 21.4 4 Sudoeste 11 Sudoeste 0 -- -- 88
2020-06-24 06:00:00 21.1 4 Oeste 11 Sudoeste 0 -- -- 88
2020-06-24 05:00:00 21.5 5 Oeste 11 Oeste 0 -- -- 88
2020-06-24 04:00:00 21.6 5 Oeste 9 Oeste 0 -- -- 87
2020-06-24 03:00:00 22.1 4 Oeste 8 Sudoeste 0 -- -- 86
2020-06-24 02:00:00 22.5 4 Sudoeste 10 Sudoeste 0 -- -- 84
2020-06-24 01:00:00 22.8 8 Sudoeste 12 Sudoeste 0 -- -- 80
2020-06-24 00:00:00 23.3 2 Sur 10 Oeste 0 -- -- 77
2020-06-23 23:00:00 23.5 5 Sudoeste 13 Sudoeste 0 -- -- 77
2020-06-23 22:00:00 24.1 6 Sudoeste 15 Sudoeste 0 -- -- 73
2020-06-23 21:00:00 24.7 10 Sudoeste 20 Sur 0 -- -- 69
2020-06-23 20:00:00 25.9 14 Sudoeste 27 Sudoeste 0 -- -- 64
2020-06-23 19:00:00 25.6 13 Sur 24 Sur 0 -- -- 68
2020-06-23 18:00:00 25 12 Sur 23 Sudeste 0 -- -- 73
2020-06-23 17:00:00 24.4 17 Sudeste 26 Sudeste 0 -- -- 81
2020-06-23 16:00:00 24.6 18 Sudeste 27 Sudeste 0 -- -- 77
2020-06-23 15:00:00 25.2 13 Sudeste 22 Sudeste 0 -- -- 73
2020-06-23 14:00:00 25.3 10 Sudeste 18 Sudeste 0 -- -- 67
2020-06-23 13:00:00 25 10 Sudeste 17 Sudeste 0 -- -- 65
2020-06-23 12:00:00 25 10 Sudeste 15 Sudeste 0 -- -- 67
2020-06-23 11:00:00 24.4 7 Sudeste 14 Sudeste 0 -- -- 73
2020-06-23 10:00:00 25.4 7 Sudeste 10 Este 0 -- -- 65
2020-06-23 09:00:00 25.1 0 Calma 8 Oeste 0 -- -- 72
2020-06-23 08:00:00 22.6 0 Calma 6 Oeste 0 -- -- 81
2020-06-23 07:00:00 21.3 4 Noroeste 14 Noroeste 0 -- -- 75
2020-06-23 06:00:00 21.7 9 Noroeste 15 Noroeste 0 -- -- 71
2020-06-23 05:00:00 21.7 8 Noroeste 16 Norte 0 -- -- 67
2020-06-23 04:00:00 22 7 Noroeste 19 Norte 0 -- -- 70
2020-06-23 03:00:00 22.2 10 Noroeste 19 Noroeste 0 -- -- 72
2020-06-23 02:00:00 22.9 9 Noroeste 20 Oeste 0 -- -- 65
2020-06-23 01:00:00 23.1 10 Noroeste 24 Oeste 0 -- -- 67
2020-06-23 00:00:00 23.8 12 Noroeste 29 Oeste 0 -- -- 55
2020-06-22 23:00:00 23.1 8 Noroeste 15 Noroeste 0 -- -- 58
2020-06-22 22:00:00 24 5 Noroeste 15 Sudoeste 0 -- -- 71
2020-06-22 21:00:00 25.5 7 Oeste 15 Sudoeste 0 -- -- 67
2020-06-22 20:00:00 26.2 10 Sudoeste 18 Sudoeste 0 -- -- 59
2020-06-22 19:00:00 26.1 9 Sudeste 22 Este 0 -- -- 62
2020-06-22 18:00:00 27.7 11 Sudeste 22 Norte 0 -- -- 46
2020-06-22 17:00:00 28 9 Nordeste 27 Norte 0 -- -- 48
2020-06-22 16:00:00 27.3 13 Nordeste 30 Nordeste 0 -- -- 49
2020-06-22 15:00:00 27.4 6 Norte 30 Nordeste 0 -- -- 51
2020-06-22 14:00:00 26.5 14 Nordeste 31 Nordeste 0 -- -- 53
2020-06-22 13:00:00 26.5 13 Nordeste 27 Nordeste 0 -- -- 54
2020-06-22 12:00:00 27 11 Nordeste 32 Nordeste 0 -- -- 49
2020-06-22 11:00:00 27.2 12 Norte 31 Noroeste 0 -- -- 46
2020-06-22 10:00:00 26.3 14 Noroeste 37 Noroeste 0 -- -- 49
2020-06-22 09:00:00 24.6 12 Noroeste 29 Norte 0 -- -- 56
2020-06-22 08:00:00 23.1 10 Noroeste 26 Noroeste 0 -- -- 60
2020-06-22 07:00:00 21.9 13 Noroeste 26 Oeste 0 -- -- 61
2020-06-22 06:00:00 22.8 8 Noroeste 27 Norte 0 -- -- 56
2020-06-22 05:00:00 23.8 14 Noroeste 33 Norte 0 -- -- 52
2020-06-22 04:00:00 24 15 Noroeste 30 Noroeste 0 -- -- 52
2020-06-22 03:00:00 23.4 6 Noroeste 33 Norte 0 -- -- 55
2020-06-22 02:00:00 24.1 12 Noroeste 27 Noroeste 0 -- -- 52
2020-06-22 01:00:00 24.2 15 Noroeste 39 Noroeste 0 -- -- 53
2020-06-22 00:00:00 24.7 14 Noroeste 31 Norte 0 -- -- 52
2020-06-21 23:00:00 25.4 9 Noroeste 32 Noroeste 0 -- -- 50
2020-06-21 22:00:00 25.2 6 Noroeste 19 Este 0 -- -- 46
2020-06-21 21:00:00 23.3 5 Este 11 Este 0 -- -- 80
2020-06-21 20:00:00 23.7 5 Este 18 Sudeste 0 -- -- 83
2020-06-21 19:00:00 23.9 9 Sudeste 16 Sudeste 0 -- -- 80
2020-06-21 18:00:00 23.9 10 Sudeste 23 Sudeste 0 -- -- 79
2020-06-21 17:00:00 23.8 12 Sudeste 19 Sudeste 0 -- -- 75
2020-06-21 16:00:00 23.9 11 Sudeste 19 Sudeste 0 -- -- 76
2020-06-21 15:00:00 24.2 13 Sudeste 18 Sudeste 0 -- -- 73
2020-06-21 14:00:00 24.1 9 Sudeste 19 Sudeste 0 -- -- 71
2020-06-21 13:00:00 24.6 12 Sudeste 18 Este 0 -- -- 64
2020-06-21 12:00:00 26.4 10 Sur 23 Norte 0 -- -- 55
2020-06-21 11:00:00 26 11 Noroeste 28 Noroeste 0 -- -- 50
2020-06-21 10:00:00 25 13 Noroeste 23 Noroeste 0 -- -- 54
2020-06-21 09:00:00 23.3 4 Sudoeste 17 Oeste 0 -- -- 66
2020-06-21 08:00:00 21.1 8 Noroeste 18 Noroeste 0 -- -- 72
2020-06-21 07:00:00 18.9 9 Noroeste 19 Noroeste 0 -- -- 79
2020-06-21 06:00:00 18.6 9 Noroeste 15 Noroeste 0 -- -- 83
2020-06-21 05:00:00 19.2 7 Noroeste 16 Noroeste 0 -- -- 81
2020-06-21 04:00:00 19.4 7 Noroeste 16 Noroeste 0 -- -- 80
2020-06-21 03:00:00 20.2 8 Norte 14 Noroeste 0 -- -- 79
2020-06-21 02:00:00 20.4 8 Noroeste 16 Noroeste 0 -- -- 84
2020-06-21 01:00:00 20.9 8 Noroeste 18 Noroeste 0 -- -- 84
2020-06-21 00:00:00 21 4 Oeste 9 Noroeste 0 -- -- 84
2020-06-20 23:00:00 21.5 6 Oeste 12 Oeste 0 -- -- 84
2020-06-20 22:00:00 22 7 Sudoeste 17 Oeste 0 -- -- 81
2020-06-20 21:00:00 22.5 7 Oeste 16 Oeste 0 -- -- 79
2020-06-20 20:00:00 22.5 10 Oeste 16 Sudoeste 0 -- -- 77
2020-06-20 19:00:00 22.5 8 Sudoeste 21 Sudoeste 0 -- -- 78
2020-06-20 18:00:00 22.7 9 Sudoeste 20 Sudoeste 0 -- -- 75
2020-06-20 17:00:00 23.1 11 Sur 27 Sur 0 -- -- 70
2020-06-20 16:00:00 23 19 Sudeste 29 Sudeste 0 -- -- 74
2020-06-20 15:00:00 23.7 17 Sudeste 24 Sudeste 0 -- -- 68
2020-06-20 14:00:00 24 14 Sudeste 22 Sudeste 0 -- -- 57
2020-06-20 13:00:00 24.3 12 Sudeste 17 Sudeste 0 -- -- 59
2020-06-20 12:00:00 24.1 10 Sudeste 14 Sudeste 0 -- -- 64
2020-06-20 11:00:00 24.2 7 Sudeste 10 Este 0 -- -- 58
2020-06-20 10:00:00 23.8 5 Sur 12 Sudoeste 0 -- -- 62
2020-06-20 09:00:00 22.1 7 Sudoeste 10 Sudoeste 0 -- -- 62
2020-06-20 08:00:00 19.9 3 Oeste 15 Noroeste 0 -- -- 78
2020-06-20 07:00:00 18.3 11 Noroeste 16 Noroeste 0 -- -- 80
2020-06-20 06:00:00 18.6 8 Noroeste 13 Noroeste 0 -- -- 78
2020-06-20 05:00:00 18.6 3 Oeste 8 Oeste 0 -- -- 82
2020-06-20 04:00:00 18.8 3 Oeste 10 Oeste 0 -- -- 80
2020-06-20 03:00:00 18.6 4 Noroeste 12 Noroeste 0 -- -- 79
2020-06-20 02:00:00 19.4 2 Noroeste 11 Norte 0 -- -- 74
2020-06-20 01:00:00 19.8 2 Noroeste 7 Noroeste 0 -- -- 73
2020-06-20 00:00:00 20.5 5 Oeste 11 Sudoeste 0 -- -- 71
2020-06-19 23:00:00 21.1 4 Oeste 16 Oeste 0 -- -- 67
2020-06-19 22:00:00 21.6 11 Oeste 17 Oeste 0 -- -- 64
2020-06-19 21:00:00 21.8 6 Oeste 14 Sudoeste 0 -- -- 62
2020-06-19 20:00:00 21.9 10 Sudoeste 23 Sur 0 -- -- 59
2020-06-19 19:00:00 22.6 13 Sudoeste 24 Sur 0 -- -- 58
2020-06-19 18:00:00 22.7 14 Sudoeste 23 Sudeste 0 -- -- 59
2020-06-19 17:00:00 21.9 13 Sudeste 18 Sudeste 0 -- -- 61
2020-06-19 16:00:00 21.9 11 Sudeste 18 Sudeste 0 -- -- 61
2020-06-19 15:00:00 21.4 13 Este 19 Este 0 -- -- 61
2020-06-19 14:00:00 21.4 13 Este 21 Este 0 -- -- 62
2020-06-19 13:00:00 21.4 15 Este 26 Este 0 -- -- 61
2020-06-19 12:00:00 21.4 11 Este 24 Este 0 -- -- 63
2020-06-19 11:00:00 20.9 10 Este 18 Este 0 -- -- 63
2020-06-19 10:00:00 20.9 6 Sudeste 10 Sur 0 -- -- 67
2020-06-19 09:00:00 19.6 5 Sur 10 Sudoeste 0 -- -- 74
2020-06-19 08:00:00 16.8 4 Oeste 13 Noroeste 0 -- -- 84
2020-06-19 07:00:00 16.1 4 Oeste 9 Oeste 0 -- -- 82
2020-06-19 06:00:00 16.2 4 Noroeste 10 Norte 0 -- -- 81
2020-06-19 05:00:00 16.1 8 Noroeste 17 Noroeste 0 -- -- 84
2020-06-19 04:00:00 15.9 4 Noroeste 15 Noroeste 0 -- -- 85
2020-06-19 03:00:00 16.3 0 Calma 17 Noroeste 0 -- -- 85
2020-06-19 02:00:00 16 9 Noroeste 17 Noroeste 0 -- -- 86
2020-06-19 01:00:00 16.8 6 Oeste 20 Noroeste 0 -- -- 84
2020-06-19 00:00:00 16.6 14 Noroeste 22 Norte 0 -- -- 82
2020-06-18 23:00:00 17.2 6 Noroeste 15 Noroeste 0 -- -- 82
2020-06-18 22:00:00 17.6 8 Noroeste 15 Norte 0 -- -- 78
2020-06-18 21:00:00 19.2 3 Norte 9 Noroeste 0 -- -- 72
2020-06-18 20:00:00 20 3 Sur 9 Sudeste 0 -- -- 68
2020-06-18 19:00:00 20.2 4 Sudeste 13 Sudeste 0 -- -- 69
2020-06-18 18:00:00 19.9 11 Sudeste 17 Este 0 -- -- 69
2020-06-18 17:00:00 20.4 10 Sudeste 17 Este 0 -- -- 69
2020-06-18 16:00:00 20.2 9 Sudeste 17 Sudeste 0 -- -- 70
2020-06-18 15:00:00 19.9 11 Este 16 Sudeste 0 -- -- 69
2020-06-18 14:00:00 19.7 10 Este 13 Sudeste 0 -- -- 70
2020-06-18 13:00:00 19.4 6 Sudeste 20 Sudeste 0 -- -- 75
2020-06-18 12:00:00 17.1 10 Este 19 Sur 1.6 -- -- 88
2020-06-18 11:00:00 16.2 8 Sudoeste 12 Sudoeste 0.6 -- -- 89
2020-06-18 10:00:00 16 3 Noroeste 8 Sudoeste 0.4 -- -- 90
2020-06-18 09:00:00 15.9 7 Sudoeste 13 Oeste 0 -- -- 90
2020-06-18 08:00:00 15.4 4 Oeste 6 Sudoeste 0 -- -- 90
2020-06-18 07:00:00 14.5 3 Sudoeste 14 Noroeste 0 -- -- 91
2020-06-18 06:00:00 14.8 5 Oeste 15 Norte 0 -- -- 90
2020-06-18 05:00:00 15.1 6 Noroeste 14 Noroeste 0 -- -- 90
2020-06-18 04:00:00 15.6 4 Oeste 9 Sudoeste 0 -- -- 90
2020-06-18 03:00:00 16 5 Sudoeste 12 Noroeste 0 -- -- 89
2020-06-18 02:00:00 15.9 4 Norte 14 Norte 0 -- -- 88
2020-06-18 01:00:00 16.3 5 Norte 12 Noroeste 0 -- -- 89
2020-06-18 00:00:00 16.4 10 Noroeste 20 Noroeste 0 -- -- 90
2020-06-17 23:00:00 16.6 6 Noroeste 18 Norte 0 -- -- 90
2020-06-17 22:00:00 16.7 5 Noroeste 13 Noroeste 0 -- -- 90
2020-06-17 21:00:00 16.9 6 Noroeste 12 Oeste 0 -- -- 88
2020-06-17 20:00:00 17.1 4 Sudoeste 9 Sur 0.6 -- -- 88
2020-06-17 19:00:00 16.9 3 Noroeste 26 Nordeste 5 -- -- 87
2020-06-17 18:00:00 17.4 13 Nordeste 30 Nordeste 0 -- -- 81
2020-06-17 17:00:00 20.4 14 Este 21 Sudeste 0 -- -- 67
2020-06-17 16:00:00 20.5 13 Este 21 Este 0 -- -- 65
2020-06-17 15:00:00 20.5 13 Este 23 Sudeste 0 -- -- 64
2020-06-17 14:00:00 20.5 14 Este 25 Este 0 -- -- 63
2020-06-17 13:00:00 20.7 12 Este 21 Este 0 -- -- 59
2020-06-17 12:00:00 20.3 9 Este 13 Nordeste 0 -- -- 63
2020-06-17 11:00:00 19.4 6 Este 13 Este 0 -- -- 66
2020-06-17 10:00:00 18.9 2 Sudeste 13 Noroeste 0 -- -- 73
2020-06-17 09:00:00 16.7 2 Sudoeste 12 Noroeste 0 -- -- 85
2020-06-17 08:00:00 15.7 4 Sudoeste 10 Noroeste 0 -- -- 85
2020-06-17 07:00:00 15.2 6 Oeste 12 Sudoeste 0 -- -- 83
2020-06-17 06:00:00 14.7 5 Noroeste 11 Oeste 0 -- -- 87
2020-06-17 05:00:00 14.8 3 Oeste 17 Norte 0 -- -- 87
2020-06-17 04:00:00 15.8 9 Noroeste 14 Noroeste 0 -- -- 86
2020-06-17 03:00:00 16 3 Oeste 10 Noroeste 0 -- -- 86
2020-06-17 02:00:00 17.1 5 Norte 15 Norte 0 -- -- 82
2020-06-17 01:00:00 17.9 5 Norte 10 Norte 0 -- -- 79
2020-06-17 00:00:00 17.9 4 Noroeste 12 Noroeste 0 -- -- 85
2020-06-16 23:00:00 18.4 6 Noroeste 12 Noroeste 0 -- -- 87
2020-06-16 22:00:00 19.6 3 Oeste 8 Sudoeste 0 -- -- 87
2020-06-16 21:00:00 19.8 0 Calma 10 Nordeste 0 -- -- 85
2020-06-16 20:00:00 20.4 7 Nordeste 14 Nordeste 0 -- -- 82
2020-06-16 19:00:00 21.2 4 Noroeste 12 Norte 0 -- -- 77
2020-06-16 18:00:00 20.3 7 Sudoeste 12 Sudoeste 0 -- -- 87
2020-06-16 17:00:00 19.7 6 Oeste 11 Sudoeste 1 -- -- 86
2020-06-16 16:00:00 20.1 6 Oeste 13 Sudoeste 0 -- -- 80
2020-06-16 15:00:00 19.9 4 Sudeste 9 Oeste 0 -- -- 79
2020-06-16 14:00:00 19.6 4 Sudoeste 9 Sur 0 -- -- 82
2020-06-16 13:00:00 18.4 5 Noroeste 16 Noroeste 0.2 -- -- 83
2020-06-16 12:00:00 18.7 9 Noroeste 18 Noroeste 0 -- -- 79
2020-06-16 11:00:00 18.1 8 Oeste 21 Oeste 0 -- -- 83
2020-06-16 10:00:00 17.9 4 Noroeste 20 Norte 0.2 -- -- 84
2020-06-16 09:00:00 17.6 6 Noroeste 17 Norte 0.2 -- -- 83
2020-06-16 08:00:00 19 8 Noroeste 15 Norte 0 -- -- 74
2020-06-16 07:00:00 18.7 6 Noroeste 14 Noroeste 0 -- -- 72
2020-06-16 06:00:00 18.9 6 Noroeste 13 Noroeste 0 -- -- 71
2020-06-16 05:00:00 19.2 6 Noroeste 13 Noroeste 0 -- -- 69
2020-06-16 04:00:00 19.4 5 Noroeste 12 Noroeste 0 -- -- 68
2020-06-16 03:00:00 19.4 4 Noroeste 10 Noroeste 0 -- -- 70
2020-06-16 02:00:00 19.5 6 Noroeste 12 Noroeste 0 -- -- 69
2020-06-16 01:00:00 19.6 6 Noroeste 13 Noroeste 0 -- -- 72
2020-06-16 00:00:00 19.8 7 Noroeste 14 Noroeste 0 -- -- 73
2020-06-15 23:00:00 19.5 10 Noroeste 18 Norte 0 -- -- 80
2020-06-15 22:00:00 19.5 12 Norte 17 Noroeste 0 -- -- 83
2020-06-15 21:00:00 21.1 6 Noroeste 14 Norte 0 -- -- 78
2020-06-15 20:00:00 22.2 5 Oeste 13 Sudoeste 0 -- -- 68
2020-06-15 19:00:00 22.7 9 Sudoeste 15 Sudoeste 0 -- -- 68
2020-06-15 18:00:00 22.2 3 Sur 15 Sur 0 -- -- 69
2020-06-15 17:00:00 20.7 6 Sur 14 Sudeste 1 -- -- 80
2020-06-15 16:00:00 21.5 12 Sudeste 19 Este 0 -- -- 68
2020-06-15 15:00:00 22.2 14 Este 21 Sudeste 0 -- -- 63
2020-06-15 14:00:00 22.2 10 Este 17 Este 0 -- -- 60
2020-06-15 13:00:00 21.4 10 Este 23 Este 0 -- -- 65
2020-06-15 12:00:00 21.7 11 Este 21 Este 0 -- -- 64
2020-06-15 11:00:00 23.1 14 Este 21 Este 0 -- -- 49
2020-06-15 10:00:00 22.6 8 Noroeste 16 Norte 0 -- -- 52
2020-06-15 09:00:00 21.3 6 Noroeste 15 Oeste 0 -- -- 58
2020-06-15 08:00:00 19 8 Noroeste 16 Noroeste 0 -- -- 68
2020-06-15 07:00:00 17.4 9 Noroeste 17 Noroeste 0 -- -- 73
2020-06-15 06:00:00 18 9 Noroeste 15 Noroeste 0 -- -- 70
2020-06-15 05:00:00 18.7 7 Noroeste 12 Noroeste 0 -- -- 67
2020-06-15 04:00:00 18.6 6 Noroeste 15 Noroeste 0 -- -- 70
2020-06-15 03:00:00 19.3 9 Noroeste 15 Noroeste 0 -- -- 70
2020-06-15 02:00:00 20 8 Noroeste 14 Noroeste 0 -- -- 67
2020-06-15 01:00:00 20.1 5 Noroeste 10 Noroeste 0 -- -- 73
2020-06-15 00:00:00 20.3 0 Calma 10 Norte 0 -- -- 82
2020-06-14 23:00:00 20.8 3 Noroeste 8 Oeste 0 -- -- 80
2020-06-14 22:00:00 21.1 4 Oeste 11 Oeste 0 -- -- 79
2020-06-14 21:00:00 21.5 5 Sudoeste 14 Sudoeste 0 -- -- 76
2020-06-14 20:00:00 21.8 10 Sudoeste 23 Sudoeste 0 -- -- 73
2020-06-14 19:00:00 22.5 13 Sudoeste 23 Sur 0 -- -- 69
2020-06-14 18:00:00 22.7 15 Sudoeste 24 Sudoeste 0 -- -- 67
2020-06-14 17:00:00 22.4 10 Sur 21 Sur 0 -- -- 69
2020-06-14 16:00:00 21.9 9 Sudeste 21 Sudeste 0 -- -- 68
2020-06-14 15:00:00 21.8 11 Sudeste 17 Sudeste 0 -- -- 61
2020-06-14 14:00:00 21.8 7 Este 16 Este 0 -- -- 55
2020-06-14 13:00:00 22.5 10 Este 18 Este 0 -- -- 50
2020-06-14 12:00:00 22 10 Sudeste 14 Este 0 -- -- 56
2020-06-14 11:00:00 22 8 Sudeste 11 Sudeste 0 -- -- 55
2020-06-14 10:00:00 21.7 4 Sur 11 Este 0 -- -- 54
2020-06-14 09:00:00 20.2 8 Noroeste 17 Noroeste 0 -- -- 59
2020-06-14 08:00:00 18.1 10 Noroeste 17 Norte 0 -- -- 68
2020-06-14 07:00:00 15.4 5 Oeste 10 Oeste 0 -- -- 80
2020-06-14 06:00:00 16 6 Noroeste 17 Noroeste 0 -- -- 79
2020-06-14 05:00:00 16.1 4 Oeste 17 Noroeste 0 -- -- 78
2020-06-14 04:00:00 16.8 9 Noroeste 16 Norte 0 -- -- 74
2020-06-14 03:00:00 16.9 4 Noroeste 13 Noroeste 0 -- -- 74
2020-06-14 02:00:00 17.7 9 Noroeste 17 Noroeste 0 -- -- 68
2020-06-14 01:00:00 18.7 6 Noroeste 22 Noroeste 0 -- -- 64
2020-06-14 00:00:00 18.6 12 Noroeste 22 Noroeste 0 -- -- 65
2020-06-13 23:00:00 19.2 10 Noroeste 19 Noroeste 0 -- -- 63
2020-06-13 22:00:00 19.5 12 Oeste 19 Oeste 0 -- -- 65
2020-06-13 21:00:00 20.4 6 Noroeste 14 Norte 0 -- -- 68
2020-06-13 20:00:00 20.9 4 Sudeste 6 Sudeste 0 -- -- 72
2020-06-13 19:00:00 21.4 4 Sudeste 9 Sudeste 0 -- -- 75
2020-06-13 18:00:00 21.7 6 Sudeste 12 Sudeste 0 -- -- 72
2020-06-13 17:00:00 20.8 6 Este 10 Sudeste 0 -- -- 71
2020-06-13 16:00:00 20.1 3 Este 23 Este 0.2 -- -- 74
2020-06-13 15:00:00 21.3 13 Este 24 Este 0 -- -- 66
2020-06-13 14:00:00 22.2 11 Sudeste 17 Sudeste 0 -- -- 58
2020-06-13 13:00:00 21.4 6 Sur 13 Sudeste 0 -- -- 70
2020-06-13 12:00:00 21.3 7 Este 19 Nordeste 0 -- -- 68
2020-06-13 11:00:00 18.6 12 Norte 33 Este 0 -- -- 81
2020-06-13 10:00:00 16 5 Oeste 19 Norte 0 -- -- 82
2020-06-13 09:00:00 16.6 10 Noroeste 20 Norte 0 -- -- 82
2020-06-13 08:00:00 17.4 11 Noroeste 21 Noroeste 0 -- -- 82
2020-06-13 07:00:00 19.8 3 Sudoeste 8 Oeste 0 -- -- 88
2020-06-13 06:00:00 19.5 5 Oeste 9 Oeste 0 -- -- 86
2020-06-13 05:00:00 19.4 5 Oeste 10 Oeste 0 -- -- 80
2020-06-13 04:00:00 18.1 3 Noroeste 7 Sur 0 -- -- 69
2020-06-13 03:00:00 19.5 5 Oeste 12 Noroeste 0 -- -- 60
2020-06-13 02:00:00 19.9 6 Oeste 14 Oeste 0 -- -- 61
2020-06-13 01:00:00 19.8 5 Oeste 12 Oeste 0 -- -- 68
2020-06-13 00:00:00 20 6 Oeste 17 Oeste 0 -- -- 67
2020-06-12 23:00:00 20.5 7 Oeste 19 Sudoeste 0 -- -- 62
2020-06-12 22:00:00 21 7 Oeste 18 Sudoeste 0 -- -- 55
2020-06-12 21:00:00 21.9 11 Sudoeste 23 Sudoeste 0 -- -- 56
2020-06-12 20:00:00 23.2 12 Sudoeste 34 Sur 0 -- -- 59
2020-06-12 19:00:00 23.1 23 Sur 42 Sur 0 -- -- 59
2020-06-12 18:00:00 23.4 29 Sudoeste 52 Sur 0 -- -- 56
2020-06-12 17:00:00 23.7 32 Sur 48 Sur 0 -- -- 54
2020-06-12 16:00:00 23.9 30 Sur 45 Sur 0 -- -- 55
2020-06-12 15:00:00 24.5 29 Sur 46 Sudoeste 0 -- -- 54
2020-06-12 14:00:00 24.9 25 Sur 41 Sur 0 -- -- 54
2020-06-12 13:00:00 23.4 20 Sur 32 Sur 0 -- -- 68
2020-06-12 12:00:00 22.1 18 Sudeste 26 Sudeste 0 -- -- 83
2020-06-12 11:00:00 22.5 10 Sudeste 15 Sudeste 0 -- -- 79
2020-06-12 10:00:00 22.5 6 Sur 12 Sudoeste 0 -- -- 82
2020-06-12 09:00:00 20.7 3 Sudoeste 10 Sur 0 -- -- 88
2020-06-12 08:00:00 19.7 4 Sur 14 Sur 0 -- -- 90
2020-06-12 07:00:00 19.5 8 Sur 14 Sudeste 0 -- -- 90
2020-06-12 06:00:00 19.7 10 Sur 22 Sur 0 -- -- 91
2020-06-12 05:00:00 19.9 16 Sur 27 Sur 0 -- -- 91
2020-06-12 04:00:00 19.8 9 Sur 25 Sudeste 0 -- -- 93
2020-06-12 03:00:00 19.9 14 Sudeste 25 Sudeste 0 -- -- 93
2020-06-12 02:00:00 19.8 14 Sur 23 Sur 0 -- -- 94
2020-06-12 01:00:00 19.9 15 Sur 23 Sur 0 -- -- 93
2020-06-12 00:00:00 19.8 10 Sur 21 Sur 0 -- -- 93
2020-06-11 23:00:00 19.9 15 Sur 26 Sur 0 -- -- 93
2020-06-11 22:00:00 19.8 15 Sur 21 Sudeste 0 -- -- 93
2020-06-11 21:00:00 19.9 14 Sudeste 23 Sudeste 0.4 -- -- 92
2020-06-11 20:00:00 20.1 14 Sur 28 Sudeste 0.2 -- -- 91
2020-06-11 19:00:00 20.5 16 Sur 27 Sur 0 -- -- 86
2020-06-11 18:00:00 20.6 18 Sur 29 Sur 0 -- -- 80
2020-06-11 17:00:00 20.7 18 Sur 36 Sudeste 0 -- -- 83
2020-06-11 16:00:00 20.9 27 Sudeste 35 Sur 0 -- -- 78
2020-06-11 15:00:00 20.9 22 Sudeste 33 Sudeste 0 -- -- 78
2020-06-11 14:00:00 20.4 23 Sudeste 31 Sudeste 0 -- -- 77
2020-06-11 13:00:00 20.7 19 Sur 28 Sur 0 -- -- 74
2020-06-11 12:00:00 19.7 16 Sudoeste 24 Sudoeste 0.2 -- -- 72
2020-06-11 11:00:00 18.4 10 Sur 17 Sur 0 -- -- 74
2020-06-11 10:00:00 16.8 6 Oeste 12 Oeste 0 -- -- 78
2020-06-11 09:00:00 15.9 7 Sudoeste 9 Sudoeste 0 -- -- 85
2020-06-11 08:00:00 15 3 Oeste 8 Sudoeste 0 -- -- 90
2020-06-11 07:00:00 14.4 4 Oeste 10 Oeste 0 -- -- 90
2020-06-11 06:00:00 14.2 0 Calma 6 Norte 0 -- -- 90
2020-06-11 05:00:00 14.4 3 Norte 14 Noroeste 0 -- -- 90
2020-06-11 04:00:00 14.6 6 Noroeste 10 Noroeste 0 -- -- 88
2020-06-11 03:00:00 14.9 3 Norte 18 Oeste 0.4 -- -- 87
2020-06-11 02:00:00 15 8 Noroeste 17 Norte 1 -- -- 89
2020-06-11 01:00:00 15.6 8 Noroeste 31 Oeste 0.6 -- -- 86
2020-06-11 00:00:00 16.3 8 Noroeste 21 Noroeste 0 -- -- 83
2020-06-10 23:00:00 18.2 9 Oeste 23 Oeste 0 -- -- 70
2020-06-10 22:00:00 18.5 7 Oeste 18 Oeste 0 -- -- 76
2020-06-10 21:00:00 19.2 8 Oeste 17 Oeste 0 -- -- 73
2020-06-10 20:00:00 19.7 8 Sudoeste 17 Sudoeste 0 -- -- 72
2020-06-10 19:00:00 19.6 10 Sur 17 Sudoeste 0 -- -- 73
2020-06-10 18:00:00 19.9 11 Sur 15 Sur 0 -- -- 73
2020-06-10 17:00:00 19.4 11 Sur 19 Sur 0 -- -- 72
2020-06-10 16:00:00 19.7 12 Sur 22 Sudeste 0 -- -- 70
2020-06-10 15:00:00 19.9 14 Sudeste 24 Sudeste 0 -- -- 65
2020-06-10 14:00:00 20.2 15 Sudeste 23 Sudeste 0 -- -- 59
2020-06-10 13:00:00 20.3 13 Sudeste 20 Sudeste 0 -- -- 59
2020-06-10 12:00:00 21.1 9 Sudeste 14 Sudeste 0 -- -- 56
2020-06-10 11:00:00 20.4 7 Sudeste 10 Sudeste 0 -- -- 58
2020-06-10 10:00:00 19.1 4 Sudoeste 14 Noroeste 0 -- -- 58
2020-06-10 09:00:00 17.4 3 Sur 9 Sudoeste 0 -- -- 69
2020-06-10 08:00:00 13.6 3 Oeste 9 Sudoeste 0 -- -- 83
2020-06-10 07:00:00 14 4 Oeste 15 Noroeste 0 -- -- 77
2020-06-10 06:00:00 14.5 8 Noroeste 17 Noroeste 0 -- -- 72
2020-06-10 05:00:00 14.7 9 Noroeste 19 Noroeste 0 -- -- 81
2020-06-10 04:00:00 15.8 5 Sudoeste 17 Oeste 0 -- -- 72
2020-06-10 03:00:00 16 8 Noroeste 15 Noroeste 0 -- -- 71
2020-06-10 02:00:00 16.9 6 Noroeste 17 Noroeste 0 -- -- 66
2020-06-10 01:00:00 16 4 Noroeste 14 Noroeste 0 -- -- 72
2020-06-10 00:00:00 16.7 6 Noroeste 16 Oeste 0 -- -- 66
2020-06-09 23:00:00 17.4 6 Norte 14 Noroeste 0 -- -- 65
2020-06-09 22:00:00 17.9 3 Noroeste 14 Oeste 0 -- -- 72
2020-06-09 21:00:00 19.3 7 Noroeste 17 Oeste 0 -- -- 69
2020-06-09 20:00:00 20.7 8 Oeste 15 Sudoeste 0 -- -- 62
2020-06-09 19:00:00 21.4 10 Sudoeste 16 Oeste 0 -- -- 53
2020-06-09 18:00:00 20.2 6 Oeste 17 Oeste 0 -- -- 59
2020-06-09 17:00:00 18.8 8 Oeste 21 Oeste 0.2 -- -- 72
2020-06-09 16:00:00 20.3 11 Oeste 24 Sudoeste 0 -- -- 62
2020-06-09 15:00:00 21.5 11 Noroeste 27 Norte 0 -- -- 46
2020-06-09 14:00:00 21.4 15 Noroeste 34 Norte 0 -- -- 45
2020-06-09 13:00:00 20.6 13 Noroeste 35 Noroeste 0 -- -- 48
2020-06-09 12:00:00 19.2 12 Noroeste 25 Norte 0 -- -- 56
2020-06-09 11:00:00 18.2 10 Noroeste 33 Noroeste 0 -- -- 58
2020-06-09 10:00:00 18.3 16 Noroeste 31 Noroeste 0 -- -- 58
2020-06-09 09:00:00 17.9 15 Noroeste 27 Noroeste 0 -- -- 60
2020-06-09 08:00:00 16.1 11 Noroeste 27 Noroeste 0 -- -- 65
2020-06-09 07:00:00 14.7 10 Noroeste 22 Oeste 0 -- -- 69
2020-06-09 06:00:00 14 9 Noroeste 19 Noroeste 0 -- -- 72
2020-06-09 05:00:00 13.6 9 Noroeste 17 Noroeste 0 -- -- 79
2020-06-09 04:00:00 13.6 8 Noroeste 16 Noroeste 0 -- -- 81
2020-06-09 03:00:00 13.8 8 Noroeste 16 Noroeste 0 -- -- 80
2020-06-09 02:00:00 14.1 10 Noroeste 18 Oeste 0 -- -- 80
2020-06-09 01:00:00 14.6 11 Noroeste 21 Noroeste 0 -- -- 79
2020-06-09 00:00:00 14.2 10 Noroeste 21 Norte 0 -- -- 81
2020-06-08 23:00:00 14.6 8 Noroeste 15 Noroeste 0 -- -- 78
2020-06-08 22:00:00 15.8 6 Oeste 16 Oeste 0 -- -- 75
2020-06-08 21:00:00 16.7 6 Oeste 29 Oeste 0 -- -- 73
2020-06-08 20:00:00 18.4 15 Oeste 27 Oeste 0 -- -- 64
2020-06-08 19:00:00 18.6 16 Oeste 28 Noroeste 0 -- -- 63
2020-06-08 18:00:00 18.4 13 Oeste 22 Sudoeste 0 -- -- 69
2020-06-08 17:00:00 16.4 13 Oeste 24 Oeste 0 -- -- 79
2020-06-08 16:00:00 15.9 17 Oeste 23 Oeste 0.2 -- -- 79
2020-06-08 15:00:00 17.9 13 Oeste 26 Oeste 0 -- -- 64
2020-06-08 14:00:00 20.7 8 Nordeste 26 Norte 0 -- -- 45
2020-06-08 13:00:00 20.3 6 Noroeste 16 Norte 0 -- -- 45
2020-06-08 12:00:00 19 9 Oeste 27 Norte 0 -- -- 52
2020-06-08 11:00:00 18.1 12 Noroeste 32 Noroeste 0 -- -- 57
2020-06-08 10:00:00 16.7 8 Noroeste 29 Noroeste 0 -- -- 66
2020-06-08 09:00:00 16 8 Noroeste 21 Norte 0.2 -- -- 71
2020-06-08 08:00:00 15.7 12 Noroeste 30 Noroeste 0 -- -- 69
2020-06-08 07:00:00 15.7 12 Noroeste 29 Noroeste 0 -- -- 67
2020-06-08 06:00:00 15.5 9 Noroeste 22 Norte 0 -- -- 69
2020-06-08 05:00:00 15.4 10 Noroeste 23 Noroeste 0 -- -- 68
2020-06-08 04:00:00 15.3 6 Noroeste 14 Noroeste 0 -- -- 72
2020-06-08 03:00:00 15.5 0 Calma 9 Norte 0 -- -- 74
2020-06-08 02:00:00 15.2 6 Noroeste 18 Noroeste 0 -- -- 73
2020-06-08 01:00:00 15.3 10 Noroeste 24 Norte 0 -- -- 72
2020-06-08 00:00:00 15 10 Noroeste 25 Noroeste 0 -- -- 77
2020-06-07 23:00:00 15.1 10 Noroeste 27 Norte 0 -- -- 75
2020-06-07 22:00:00 14.3 14 Noroeste 27 Norte 0.8 -- -- 86
2020-06-07 21:00:00 14 10 Noroeste 18 Noroeste 1.2 -- -- 88
2020-06-07 20:00:00 14.2 10 Noroeste 32 Noroeste 1.4 -- -- 85
2020-06-07 19:00:00 15.2 14 Noroeste 30 Norte 0.6 -- -- 80
2020-06-07 18:00:00 16.9 7 Noroeste 15 Nordeste 0 -- -- 81
2020-06-07 17:00:00 15.9 2 Oeste 15 Noroeste 2.2 -- -- 88
2020-06-07 16:00:00 15.6 4 Noroeste 25 Noroeste 1.4 -- -- 84
2020-06-07 15:00:00 17.9 12 Noroeste 29 Noroeste 0.2 -- -- 71
2020-06-07 14:00:00 18.4 7 Noroeste 25 Noroeste 0.2 -- -- 68
2020-06-07 13:00:00 17.9 5 Noroeste 16 Oeste 0.6 -- -- 75
2020-06-07 12:00:00 19 7 Noroeste 22 Norte 0 -- -- 72
2020-06-07 11:00:00 20 9 Nordeste 21 Este 0 -- -- 69
2020-06-07 10:00:00 20.2 7 Norte 17 Norte 0 -- -- 69
2020-06-07 09:00:00 19 9 Sudeste 15 Sudeste 0 -- -- 78
2020-06-07 08:00:00 18.2 5 Sudoeste 11 Oeste 0 -- -- 84
2020-06-07 07:00:00 16.6 8 Noroeste 15 Noroeste 0 -- -- 88
2020-06-07 06:00:00 17.2 5 Noroeste 13 Norte 0 -- -- 89
2020-06-07 05:00:00 17.8 5 Noroeste 12 Norte 0 -- -- 89
2020-06-07 04:00:00 18.2 6 Norte 15 Noroeste 0.8 -- -- 89
2020-06-07 03:00:00 18.7 5 Noroeste 12 Noroeste 0 -- -- 89
2020-06-07 02:00:00 19 6 Noroeste 17 Noroeste 0 -- -- 89
2020-06-07 01:00:00 19.2 8 Norte 15 Noroeste 0 -- -- 89
2020-06-07 00:00:00 19.7 5 Nordeste 11 Nordeste 0 -- -- 90
2020-06-06 23:00:00 19.8 5 Norte 13 Este 0 -- -- 89
2020-06-06 22:00:00 19.9 7 Nordeste 19 Este 0 -- -- 88
2020-06-06 21:00:00 20 10 Nordeste 24 Este 0 -- -- 86
2020-06-06 20:00:00 20 14 Este 24 Este 0 -- -- 83
2020-06-06 19:00:00 20.4 14 Este 25 Este 0 -- -- 82
2020-06-06 18:00:00 20.4 17 Este 24 Este 0 -- -- 80
2020-06-06 17:00:00 20.8 15 Sudeste 24 Sudeste 0 -- -- 76
2020-06-06 16:00:00 20.8 16 Sudeste 24 Sudeste 0 -- -- 74
2020-06-06 15:00:00 20.5 14 Sudeste 22 Sudeste 0 -- -- 73
2020-06-06 14:00:00 20.9 13 Sudeste 21 Sudeste 0 -- -- 68
2020-06-06 13:00:00 20.9 12 Sudeste 18 Este 0 -- -- 68
2020-06-06 12:00:00 21.1 8 Sudeste 11 Sudeste 0 -- -- 69
2020-06-06 11:00:00 20.5 8 Sudeste 11 Sur 0 -- -- 72
2020-06-06 10:00:00 19.3 0 Calma 11 Sudoeste 0 -- -- 78
2020-06-06 09:00:00 17.4 5 Sudoeste 14 Oeste 0 -- -- 84
2020-06-06 08:00:00 18.1 5 Oeste 20 Nordeste 0 -- -- 78
2020-06-06 07:00:00 17.3 6 Norte 12 Noroeste 0 -- -- 88
2020-06-06 06:00:00 15.6 3 Oeste 9 Oeste 0 -- -- 88
2020-06-06 05:00:00 15.9 4 Oeste 9 Noroeste 0 -- -- 86
2020-06-06 04:00:00 16.7 5 Noroeste 10 Noroeste 0 -- -- 84
2020-06-06 03:00:00 17 5 Noroeste 8 Noroeste 0 -- -- 82
2020-06-06 02:00:00 17.6 4 Norte 6 Noroeste 0 -- -- 79
2020-06-06 01:00:00 18.8 2 Noroeste 10 Oeste 0 -- -- 74
2020-06-06 00:00:00 18.9 5 Oeste 10 Oeste 0 -- -- 73
2020-06-05 23:00:00 19.1 6 Oeste 14 Oeste 0 -- -- 72
2020-06-05 22:00:00 19.4 5 Oeste 14 Sudoeste 0 -- -- 70
2020-06-05 21:00:00 19.9 8 Sudoeste 19 Sudoeste 0 -- -- 68
2020-06-05 20:00:00 20.7 13 Sudoeste 24 Sudoeste 0 -- -- 65
2020-06-05 19:00:00 20.7 16 Sudeste 25 Sudeste 0 -- -- 67
2020-06-05 18:00:00 21 18 Sudeste 26 Sudeste 0 -- -- 62
2020-06-05 17:00:00 21.4 16 Sur 23 Sudeste 0 -- -- 62
2020-06-05 16:00:00 21.8 14 Sudeste 19 Sudeste 0 -- -- 57
2020-06-05 15:00:00 21.8 11 Sudeste 19 Este 0 -- -- 56
2020-06-05 14:00:00 21.6 11 Este 23 Este 0 -- -- 49
2020-06-05 13:00:00 21.5 12 Este 24 Este 0 -- -- 48
2020-06-05 12:00:00 21.5 11 Este 26 Este 0 -- -- 49
2020-06-05 11:00:00 20.3 10 Nordeste 22 Oeste 0 -- -- 50
2020-06-05 10:00:00 19.4 7 Noroeste 21 Noroeste 0 -- -- 60
2020-06-05 09:00:00 17.4 10 Noroeste 22 Noroeste 0 -- -- 69
2020-06-05 08:00:00 16.1 8 Noroeste 21 Noroeste 0 -- -- 74
2020-06-05 07:00:00 14 10 Noroeste 22 Noroeste 0 -- -- 79
2020-06-05 06:00:00 13.9 13 Noroeste 24 Noroeste 0 -- -- 79
2020-06-05 05:00:00 13.1 8 Noroeste 13 Oeste 0 -- -- 88
2020-06-05 04:00:00 13.5 4 Noroeste 22 Noroeste 0 -- -- 87
2020-06-05 03:00:00 13.6 15 Noroeste 23 Norte 0 -- -- 89
2020-06-05 02:00:00 13.6 7 Noroeste 17 Norte 0 -- -- 90
2020-06-05 01:00:00 14 9 Norte 25 Noroeste 0 -- -- 91
2020-06-05 00:00:00 13.9 6 Oeste 14 Noroeste 0 -- -- 91
2020-06-04 23:00:00 14 11 Norte 17 Norte 0 -- -- 91
2020-06-04 22:00:00 14.7 6 Noroeste 11 Norte 0 -- -- 90
2020-06-04 21:00:00 15.6 5 Sudoeste 11 Sudeste 1.4 -- -- 89
2020-06-04 20:00:00 15.3 8 Oeste 27 Oeste 5.8 -- -- 85
2020-06-04 19:00:00 18.2 7 Noroeste 18 Norte 0.4 -- -- 75
2020-06-04 18:00:00 19.6 6 Oeste 21 Sudoeste 0 -- -- 74
2020-06-04 17:00:00 20.8 10 Sudeste 12 Sudeste 0 -- -- 70
2020-06-04 16:00:00 20.6 5 Sudeste 10 Sur 0 -- -- 68
2020-06-04 15:00:00 19.7 6 Sudeste 9 Sudeste 0 -- -- 72
2020-06-04 14:00:00 18.6 4 Sudoeste 12 Sudoeste 0 -- -- 84
2020-06-04 13:00:00 18 7 Noroeste 14 Noroeste 0 -- -- 88
2020-06-04 12:00:00 17.3 2 Norte 10 Norte 1.4 -- -- 92
2020-06-04 11:00:00 16.1 4 Norte 18 Norte 3.4 -- -- 92
2020-06-04 10:00:00 15.9 10 Noroeste 37 Noroeste 9.8 -- -- 90
2020-06-04 09:00:00 18.8 3 Norte 7 Norte 0.2 -- -- 88
2020-06-04 08:00:00 18.5 0 Calma 7 Noroeste 0.6 -- -- 89
2020-06-04 07:00:00 19 4 Noroeste 17 Este 0 -- -- 85
2020-06-04 06:00:00 19 3 Sudeste 11 Sudeste 0 -- -- 94
2020-06-04 05:00:00 18.9 3 Noroeste 6 Norte 0 -- -- 94
2020-06-04 04:00:00 19 4 Noroeste 11 Noroeste 0 -- -- 94
2020-06-04 03:00:00 19.1 6 Norte 8 Noroeste 0 -- -- 93
2020-06-04 02:00:00 19.4 4 Norte 12 Noroeste 0.2 -- -- 92
2020-06-04 01:00:00 19.7 0 Calma 5 Noroeste 0 -- -- 92
2020-06-04 00:00:00 19.7 0 Calma 7 Sudoeste 0 -- -- 92
2020-06-03 23:00:00 19.9 6 Sudoeste 10 Sudoeste 1.4 -- -- 90
2020-06-03 22:00:00 20.2 3 Oeste 18 Noroeste 2.4 -- -- 88
2020-06-03 21:00:00 20.5 6 Noroeste 23 Oeste 0 -- -- 86
2020-06-03 20:00:00 20.6 12 Sudoeste 23 Sur 0.4 -- -- 87
2020-06-03 19:00:00 21 8 Sudoeste 25 Sudoeste 0 -- -- 83
2020-06-03 18:00:00 21.5 11 Sudoeste 23 Sudoeste 0 -- -- 80
2020-06-03 17:00:00 22 8 Sudoeste 23 Sur 0 -- -- 79
2020-06-03 16:00:00 22.5 15 Sur 25 Sudoeste 0 -- -- 75
2020-06-03 15:00:00 23.7 10 Sudeste 28 Sudoeste 0 -- -- 71
2020-06-03 14:00:00 22.7 21 Sur 35 Sur 0 -- -- 73
2020-06-03 13:00:00 23.9 21 Sur 30 Sur 0 -- -- 68
2020-06-03 12:00:00 24.1 9 Este 13 Sudeste 0 -- -- 68
2020-06-03 11:00:00 23.9 5 Sudeste 7 Sudeste 0 -- -- 69
2020-06-03 10:00:00 21.4 5 Este 7 Sudeste 0 -- -- 75
2020-06-03 09:00:00 20.8 0 Calma 10 Sudoeste 0 -- -- 79
2020-06-03 08:00:00 18.9 4 Sudoeste 8 Sudoeste 0 -- -- 87
2020-06-03 07:00:00 17.9 2 Sudoeste 7 Noroeste 0 -- -- 88
2020-06-03 06:00:00 17.4 0 Calma 12 Oeste 0 -- -- 89
2020-06-03 05:00:00 18.1 5 Noroeste 12 Noroeste 0 -- -- 87
2020-06-03 04:00:00 18 4 Oeste 12 Oeste 0 -- -- 86
2020-06-03 03:00:00 18.5 8 Noroeste 15 Oeste 0 -- -- 83
2020-06-03 02:00:00 18.6 5 Noroeste 10 Norte 0 -- -- 80
2020-06-03 01:00:00 19.4 3 Noroeste 8 Noroeste 0 -- -- 75
2020-06-03 00:00:00 20.4 0 Calma 11 Oeste 0 -- -- 69